• Join FlightAware (Why Join?)
  • Login
  • US Flag 
08:40PM EDT


 

Airport Tracker/Info


-or-


 

Live Flight TrackerFlight Track Log ✈ N16112 ✈ 26-Apr-2013 ✈ KIAH - KMCO

Flight Track Log - Related Links

Times and Time Zones

All times are in EDT time to prevent confusion due to time zone crossing. See the N16112 flight status page for this flight to view local times or setup timezone preferences in your user account.

Time Position Orientation Groundspeed Altitude Reporting Facility
EDT Latitude Longitude Course Direction KTS MPH feet Rate Location/Type
02:50PM 29.9594 -95.3414 97° East 162 186 600  Level Houston Center
02:51PM 29.9303 -95.2317 107° East 265 305 3,700 1,620 Climbing Houston Center
02:52PM 29.9300 -95.2181 91° East 239 275 4,000 240 Climbing Houston Center
02:52PM 29.9261 -95.1406 93° East 273 314 4,000 60 Level Houston Center
02:53PM 29.9101 -94.7870 95° East  Level FlightAware Approximate
02:53PM 29.9267 -95.1286 87° East 274 315 4,100  Level Houston Center
02:54PM 29.8981 -94.6494 97° East  Level FlightAware Approximate
02:54PM 29.9178 -95.0244 96° East 272 313 6,200  Level Houston Center
02:55PM 29.8829 -94.5123 97° East  Level FlightAware Approximate
02:55PM 29.9108 -94.9356 95° East 278 320 9,000  Level Houston Center
02:56PM 29.9039 -94.8400 95° East 294 338 10,500 960 Climbing Houston Center
02:57PM 29.8950 -94.7261 95° East 350 403 11,100 900 Climbing Houston Center
02:58PM 29.8850 -94.6017 95° East 385 443 12,400 1,380 Climbing Houston Center
02:59PM 29.8753 -94.4758 95° East 392 451 14,000 1,440 Climbing Houston Center
03:00PM 29.8644 -94.3508 96° East 393 452 15,400 1,200 Climbing Houston Center
03:01PM 29.8597 -94.1989 92° East 397 457 16,600 960 Climbing Houston Center
03:02PM 29.8550 -94.0808 93° East 405 466 17,500 720 Climbing Houston Center
03:03PM 29.8642 -93.9506 85° East 410 472 18,200 840 Climbing Houston Center
03:04PM 29.8800 -93.7922 83° East 418 481 19,300 960 Climbing Houston Center
03:05PM 29.8944 -93.6586 83° East 421 484 20,300 960 Climbing Houston Center
03:06PM 29.9075 -93.5244 84° East 425 489 21,300 960 Climbing Houston Center
03:07PM 29.9219 -93.3872 83° East 429 494 22,300 960 Climbing Houston Center
03:08PM 29.9378 -93.2253 84° East 432 497 23,400 960 Climbing Houston Center
03:09PM 29.9519 -93.0889 83° East 434 499 24,400 960 Climbing Houston Center
03:10PM 29.9658 -92.9514 83° East 435 501 25,400 960 Climbing Houston Center
03:11PM 29.9783 -92.8128 84° East 437 503 26,400 900 Climbing Houston Center
03:12PM 29.9892 -92.6725 85° East 440 506 27,300 960 Climbing Houston Center
03:13PM 30.0119 -92.5078 81° East 437 503 28,500 1,020 Climbing Houston Center
03:14PM 30.0389 -92.3703 77° East 441 507 29,500 960 Climbing Houston Center
03:16PM 30.0650 -92.2319 78° East 443 510 30,500 960 Climbing Houston Center
03:17PM 30.0914 -92.0922 78° East 447 514 31,500 900 Climbing Houston Center
03:18PM 30.1161 -91.9519 78° East 448 516 32,400 900 Climbing Houston Center
03:19PM 30.1444 -91.8094 77° East 455 524 33,400 1,020 Climbing Houston Center
03:20PM 30.1742 -91.6375 79° East 452 520 34,600 720 Climbing Houston Center
03:21PM 30.2003 -91.4953 78° East 453 521 35,000 180 Climbing Houston Center
03:22PM 30.2283 -91.3469 78° East 467 537 35,000  Level Houston Center
03:23PM 30.2558 -91.1947 78° East 480 552 35,000  Level Houston Center
03:24PM 30.2839 -91.0397 78° East 490 564 35,000  Level Houston Center
03:25PM 30.3108 -90.8828 79° East 498 573 35,000  Level Houston Center
03:26PM 30.3433 -90.6947 79° East 496 571 35,000  Level Houston Center
03:27PM 30.3706 -90.5389 79° East 495 570 35,000  Level Houston Center
03:28PM 30.3981 -90.3811 79° East 499 574 35,000  Level Houston Center
03:29PM 30.4247 -90.2242 79° East 498 573 35,000  Level Houston Center
03:30PM 30.4514 -90.0653 79° East 499 574 35,000  Level Houston Center
03:31PM 30.4786 -89.9050 79° East 501 577 35,000  Level Houston Center
03:32PM 30.5064 -89.7425 79° East 500 575 35,000  Level Houston Center
03:33PM 30.5317 -89.5806 80° East 501 577 35,000  Level Houston Center
03:34PM 30.5625 -89.3914 79° East 496 571 35,000  Level Houston Center
03:35PM 30.5872 -89.2306 80° East 505 581 35,000  Level Houston Center
03:36PM 30.6114 -89.0722 80° East 500 575 35,000  Level Houston Center
03:37PM 30.6358 -88.9225 79° East 499 574 35,000  Level Houston Center
03:38PM 30.6658 -88.7328 80° East 501 577 35,000  Level Houston Center
03:39PM 30.6900 -88.5744 80° East 500 575 35,000  Level Houston Center
03:40PM 30.7175 -88.4053 79° East 502 578 35,000  Level Houston Center
03:41PM 30.7331 -88.2431 84° East 504 580 35,000  Level Houston Center
03:42PM 30.7425 -88.0794 86° East 508 585 35,000  Level Houston Center
03:43PM 30.7536 -87.9167 85° East 506 582 35,000  Level Houston Center
03:44PM 30.7572 -87.8333 87° East 513 590 35,000  Level Jacksonville Center
03:45PM 30.7678 -87.6694 86° East 508 585 35,000  Level Jacksonville Center
03:46PM 30.7758 -87.5081 87° East 502 578 35,000  Level Jacksonville Center
03:47PM 30.7733 -87.3411 91° East 502 578 35,000  Level Jacksonville Center
03:48PM 30.7686 -87.1789 92° East 502 578 35,000  Level Jacksonville Center
03:49PM 30.7656 -87.0119 91° East 508 585 35,000  Level Jacksonville Center
03:50PM 30.7606 -86.8475 92° East 513 590 35,000  Level Jacksonville Center
03:51PM 30.7550 -86.6828 92° East 513 590 35,000  Level Jacksonville Center
03:52PM 30.7494 -86.5158 92° East 513 590 35,000  Level Jacksonville Center
03:53PM 30.7436 -86.3511 92° East 513 590 35,000  Level Jacksonville Center
03:54PM 30.7397 -86.1819 91° East 518 596 35,000  Level Jacksonville Center
03:55PM 30.7336 -86.0053 92° East 518 596 35,000  Level Jacksonville Center
03:56PM 30.7272 -85.8383 93° East 512 589 35,000  Level Jacksonville Center
03:57PM 30.7206 -85.6667 93° East 517 595 35,000  Level Jacksonville Center
03:58PM 30.7158 -85.5022 92° East 517 595 35,000  Level Jacksonville Center
03:59PM 30.7483 -85.3411 77° East 514 592 35,000  Level Jacksonville Center
04:00PM 30.7783 -85.1822 78° East 514 592 35,000 -300 Level Jacksonville Center
04:01PM 30.8061 -85.0258 78° East 501 577 34,500 -780 Descending Jacksonville Center
04:02PM 30.8358 -84.8667 78° East 496 571 33,500 -900 Descending Jacksonville Center
04:03PM 30.8608 -84.7244 78° East 496 571 32,700 -900 Descending Jacksonville Center
04:04PM 30.8464 -84.5622 96° East 496 571 31,700 -780 Descending Jacksonville Center
04:05PM 30.8233 -84.3997 99° East 501 577 31,200 -360 Descending Jacksonville Center
04:06PM 30.7939 -84.2347 102° East 506 582 31,000 -120 Descending Jacksonville Center
04:07PM 30.7683 -84.0747 100° East 506 582 31,000  Level Jacksonville Center
04:08PM 30.7428 -83.9125 100° East 506 582 31,000  Level Jacksonville Center
04:09PM 30.7147 -83.7553 102° East 506 582 31,000  Level Jacksonville Center
04:10PM 30.6883 -83.5956 101° East 506 582 31,000 -180 Level Jacksonville Center
04:11PM 30.6581 -83.4214 101° East 506 582 30,700 -840 Descending Jacksonville Center
04:12PM 30.6314 -83.2644 101° East 506 582 29,400 -1,860 Descending Jacksonville Center
04:13PM 30.5961 -83.1122 105° East 500 575 27,000 -1,200 Descending Jacksonville Center
04:14PM 30.5211 -83.0058 129° Southeast 474 545 27,000 -540 Level Jacksonville Center
04:15PM 30.4189 -82.9022 139° Southeast 469 540 26,000 -840 Descending Jacksonville Center
04:16PM 30.3186 -82.8011 139° Southeast 469 540 25,400 -540 Descending Jacksonville Center
04:17PM 30.2164 -82.6978 139° Southeast 482 555 25,000 -240 Descending Jacksonville Center
04:18PM 30.1011 -82.5878 140° Southeast 492 566 25,000  Level Jacksonville Center
04:19PM 30.0111 -82.4919 137° Southeast 486 559 25,000  Level Jacksonville Center
04:20PM 29.8961 -82.4133 149° Southeast 481 554 25,000 -900 Level Jacksonville Center
04:21PM 29.7769 -82.3589 158° South 472 543 23,200 -1,980 Descending Jacksonville Center
04:22PM 29.6617 -82.3047 158° South 461 531 21,100 -2,100 Descending Jacksonville Center
04:23PM 29.5531 -82.2503 156° South 443 510 19,100 -1,860 Descending Jacksonville Center
04:24PM 29.4419 -82.1986 158° South 438 504 17,400 -1,680 Descending Jacksonville Center
04:25PM 29.3353 -82.1469 157° South 426 490 15,800 -1,380 Descending Jacksonville Center
04:26PM 29.2286 -82.0978 158° South 421 484 14,700 -1,080 Descending Jacksonville Center
04:27PM 29.1239 -82.0486 158° South 416 479 13,700 -1,080 Descending Jacksonville Center
04:28PM 29.0233 -81.9997 157° South 411 473 12,600 -1,200 Descending Jacksonville Center
04:29PM 28.9186 -81.9486 157° South 392 451 11,400 -840 Descending Jacksonville Center
04:30PM 28.8492 -81.8756 137° Southeast 355 409 11,000 -180 Descending Jacksonville Center
04:31PM 28.8000 -81.8000 127° Southeast 345 397 11,100  Climbing Orlando TRACON
04:32PM 28.7667 -81.7167 115° Southeast 341 392 11,100 -120 Level Orlando TRACON
04:33PM 28.7167 -81.6333 124° Southeast 346 398 10,900 -480 Descending Orlando TRACON
04:34PM 28.6667 -81.5500 124° Southeast 292 336 10,200 -720 Descending Orlando TRACON
04:35PM 28.6167 -81.4667 124° Southeast 295 339 9,400 -600 Descending Orlando TRACON
04:36PM 28.5500 -81.4167 147° Southeast 253 291 9,000 -780 Descending Orlando TRACON
04:37PM 28.4833 -81.4167 180° South 237 273 7,900 -1,740 Descending Orlando TRACON
04:38PM 28.4333 -81.4167 180° South 257 296 5,800 -2,160 Descending Orlando TRACON
04:39PM 28.3667 -81.4167 180° South 256 295 4,100 -1,920 Descending Orlando TRACON